Time;durP1;ratioP1;P1;durP2;ratioP2;P2;SDS_P1;SDS_P2;PMS_P1;PMS_P2;Temp;Humidity;BMP_temperature;BMP_pressure;BME280_temperature;BME280_humidity;BME280_pressure;Samples;Min_cycle;Max_cycle;Signal;HPM_P1;HPM_P2
2023/01/28 00:00:37;;;;;;;4.00;3.60;;;3.90;99.90;;;;;;4083095;28;20440;-64
2023/01/28 00:02:38;;;;;;;4.20;3.58;;;3.90;99.90;;;;;;4093919;28;20031;-65
2023/01/28 00:04:39;;;;;;;4.35;3.60;;;3.80;99.90;;;;;;4094541;28;20109;-65
2023/01/28 00:06:40;;;;;;;4.10;3.25;;;3.80;99.90;;;;;;4093353;28;20620;-65
2023/01/28 00:08:41;;;;;;;5.10;3.70;;;3.80;99.90;;;;;;4095410;28;20043;-65
2023/01/28 00:10:42;;;;;;;6.70;3.83;;;3.80;99.90;;;;;;4095135;28;20390;-65
2023/01/28 00:12:42;;;;;;;4.95;3.38;;;3.80;99.90;;;;;;4095521;28;20071;-65
2023/01/28 00:14:45;;;;;;;5.80;3.67;;;3.80;99.90;;;;;;4094880;28;20553;-65
2023/01/28 00:16:45;;;;;;;4.70;3.85;;;3.90;99.90;;;;;;4094133;28;20483;-64
2023/01/28 00:18:46;;;;;;;4.45;4.05;;;3.90;99.90;;;;;;4092924;28;20336;-64
2023/01/28 00:20:59;;;;;;;5.22;4.00;;;3.90;99.90;;;;;;4097235;28;20027;-65
2023/01/28 00:22:59;;;;;;;6.95;4.50;;;3.80;99.90;;;;;;4094307;28;20074;-65
2023/01/28 00:25:00;;;;;;;6.97;4.60;;;3.80;99.90;;;;;;4096551;28;20043;-65
2023/01/28 00:27:00;;;;;;;4.82;4.32;;;3.80;99.90;;;;;;4095492;28;20042;-65
2023/01/28 00:29:01;;;;;;;5.40;4.30;;;3.70;99.90;;;;;;4098868;28;20122;-65
2023/01/28 00:31:06;;;;;;;5.20;4.22;;;3.70;99.90;;;;;;4094115;28;20035;-65
2023/01/28 00:33:07;;;;;;;7.25;4.38;;;3.70;99.90;;;;;;4094955;28;20106;-65
2023/01/28 00:35:07;;;;;;;4.95;4.45;;;3.70;99.90;;;;;;4095142;28;20478;-65
2023/01/28 00:37:08;;;;;;;5.40;4.30;;;3.70;99.90;;;;;;4095412;28;20399;-65
2023/01/28 00:39:14;;;;;;;5.18;4.07;;;3.70;99.90;;;;;;4099152;28;20042;-65
2023/01/28 00:41:17;;;;;;;5.45;4.68;;;3.70;99.90;;;;;;4097727;28;20054;-65
2023/01/28 00:43:17;;;;;;;4.97;4.20;;;3.70;99.90;;;;;;4097293;28;20437;-65
2023/01/28 00:45:18;;;;;;;5.90;4.30;;;3.70;99.90;;;;;;4094477;28;20035;-65
2023/01/28 00:47:20;;;;;;;6.22;4.50;;;3.70;99.90;;;;;;4099388;28;20061;-65
2023/01/28 00:49:21;;;;;;;5.53;4.47;;;3.60;99.90;;;;;;4096811;28;20074;-65
2023/01/28 00:51:22;;;;;;;7.18;5.28;;;3.60;99.90;;;;;;4096650;28;20040;-65
2023/01/28 00:53:22;;;;;;;6.38;5.00;;;3.50;99.90;;;;;;4098109;28;20058;-66
2023/01/28 00:55:23;;;;;;;5.60;4.57;;;3.50;99.90;;;;;;4093724;28;20113;-65
2023/01/28 00:57:23;;;;;;;5.75;4.78;;;3.60;99.90;;;;;;4096523;28;20050;-66
2023/01/28 00:59:24;;;;;;;5.70;4.63;;;3.60;99.90;;;;;;4096482;28;20131;-65
2023/01/28 01:01:26;;;;;;;6.60;4.85;;;3.60;99.90;;;;;;4097106;28;20039;-66
2023/01/28 01:03:27;;;;;;;7.93;4.90;;;3.60;99.90;;;;;;4097699;28;20042;-65
2023/01/28 01:05:28;;;;;;;6.07;4.53;;;3.60;99.90;;;;;;4094202;28;20051;-65
2023/01/28 01:07:42;;;;;;;6.05;4.70;;;3.60;99.90;;;;;;4095449;28;20049;-65
2023/01/28 01:09:42;;;;;;;6.47;4.50;;;3.70;99.90;;;;;;4097517;28;20055;-65
2023/01/28 01:11:43;;;;;;;6.35;4.78;;;3.70;99.90;;;;;;4095735;28;20037;-65
2023/01/28 01:13:50;;;;;;;6.90;4.60;;;3.60;99.90;;;;;;4095687;28;20054;-65
2023/01/28 01:16:04;;;;;;;5.60;4.65;;;3.70;99.90;;;;;;4093427;28;20479;-65
2023/01/28 01:18:05;;;;;;;6.20;4.55;;;3.80;99.90;;;;;;4093992;28;20041;-65
2023/01/28 01:20:09;;;;;;;8.65;4.30;;;3.80;99.90;;;;;;4094489;28;20405;-65
2023/01/28 01:22:09;;;;;;;4.90;4.40;;;3.90;99.90;;;;;;4097119;28;20380;-65
2023/01/28 01:24:10;;;;;;;5.50;4.38;;;3.90;99.90;;;;;;4079895;28;20038;-65
2023/01/28 01:26:11;;;;;;;5.30;4.40;;;4.00;99.90;;;;;;4093414;28;20090;-65
2023/01/28 01:28:12;;;;;;;6.07;4.22;;;4.10;99.90;;;;;;4099544;28;20559;-65
2023/01/28 01:30:12;;;;;;;7.22;4.38;;;4.10;99.90;;;;;;4095806;28;20075;-65
2023/01/28 01:32:13;;;;;;;6.82;4.72;;;4.20;99.90;;;;;;4096981;28;20055;-65
2023/01/28 01:34:13;;;;;;;6.28;4.80;;;4.20;99.90;;;;;;4094358;28;20043;-65
2023/01/28 01:36:16;;;;;;;5.45;4.78;;;4.30;99.90;;;;;;4094397;28;20090;-65
2023/01/28 01:38:16;;;;;;;5.00;4.50;;;4.30;99.90;;;;;;4093634;28;20515;-65
2023/01/28 01:40:17;;;;;;;5.05;4.55;;;4.40;99.90;;;;;;4097027;28;20051;-65
2023/01/28 01:42:18;;;;;;;6.22;4.55;;;4.40;99.90;;;;;;4096694;28;20054;-65
2023/01/28 01:44:57;;;;;;;12.38;5.00;;;4.40;99.90;;;;;;4094893;28;20040;-65
2023/01/28 01:46:58;;;;;;;6.57;4.72;;;4.50;99.90;;;;;;4093705;28;20062;-65
2023/01/28 01:49:07;;;;;;;6.20;5.00;;;4.50;99.90;;;;;;4093811;28;20027;-65
2023/01/28 01:51:11;;;;;;;5.05;4.55;;;4.40;99.90;;;;;;4094978;28;20466;-65
2023/01/28 01:53:17;;;;;;;7.30;5.22;;;4.40;99.90;;;;;;4098545;28;20031;-65
2023/01/28 01:55:23;;;;;;;7.15;4.88;;;4.40;99.90;;;;;;4095136;28;20393;-65
2023/01/28 01:57:28;;;;;;;6.57;5.00;;;4.40;99.90;;;;;;4093445;28;20028;-65
2023/01/28 01:59:31;;;;;;;5.20;4.63;;;4.40;99.90;;;;;;4093823;28;20074;-65
2023/01/28 02:01:32;;;;;;;5.65;4.50;;;4.50;99.90;;;;;;4092537;28;20483;-65
2023/01/28 02:03:50;;;;;;;7.40;4.95;;;4.40;99.90;;;;;;4092599;28;20043;-65
2023/01/28 02:05:51;;;;;;;4.90;4.40;;;4.50;99.90;;;;;;4092378;28;20027;-65
2023/01/28 02:08:19;;;;;;;6.78;4.90;;;4.50;99.90;;;;;;4094139;28;20089;-65
2023/01/28 02:10:17;;;;;;;6.10;4.50;;;4.40;99.90;;;;;;4093198;28;20438;-65
2023/01/28 02:12:22;;;;;;;7.07;5.03;;;4.50;99.90;;;;;;4094470;28;20054;-64
2023/01/28 02:14:27;;;;;;;6.32;4.57;;;4.30;99.90;;;;;;4088783;28;20028;-65
2023/01/28 02:16:29;;;;;;;5.20;4.70;;;4.40;99.90;;;;;;4094441;28;20039;-65
2023/01/28 02:18:30;;;;;;;;;;;4.40;99.90;;;;;;4096210;28;20058;-65
2023/01/28 02:20:34;;;;;;;8.00;4.72;;;4.40;99.90;;;;;;4096021;28;19922;-65
2023/01/28 02:22:56;;;;;;;5.90;4.60;;;4.40;99.90;;;;;;4093226;28;20538;-65
2023/01/28 02:25:27;;;;;;;7.57;4.60;;;4.40;99.90;;;;;;4088821;28;20114;-65
2023/01/28 02:27:55;;;;;;;5.68;4.80;;;4.40;99.90;;;;;;4094859;28;20055;-65
2023/01/28 02:30:28;;;;;;;6.13;5.50;;;4.40;99.90;;;;;;4049878;29;20043;-65
2023/01/28 02:32:53;;;;;;;6.73;5.50;;;4.40;99.90;;;;;;4086841;28;20031;-65
2023/01/28 02:35:11;;;;;;;8.60;5.60;;;4.40;99.90;;;;;;4091781;28;20033;-65
2023/01/28 02:37:14;;;;;;;7.28;6.03;;;4.40;99.90;;;;;;4094467;28;20035;-65
2023/01/28 02:39:29;;;;;;;6.50;5.80;;;4.40;99.90;;;;;;4098396;28;20054;-65
2023/01/28 02:41:38;;;;;;;5.75;5.15;;;4.50;99.90;;;;;;4093483;28;20047;-65
2023/01/28 02:43:42;;;;;;;6.75;5.80;;;4.50;99.90;;;;;;4096348;28;20110;-64
2023/01/28 02:48:06;;;;;;;9.40;6.88;;;4.50;99.90;;;;;;4059385;28;20037;-64
2023/01/28 02:50:16;;;;;;;7.45;6.35;;;4.40;99.90;;;;;;4095071;28;20526;-66
2023/01/28 02:55:42;;;;;;;8.52;6.47;;;4.30;99.90;;;;;;4026160;29;20041;-65
2023/01/28 02:58:00;;;;;;;7.80;6.45;;;4.30;99.90;;;;;;4083794;28;20118;-65
2023/01/28 03:00:13;;;;;;;7.68;6.45;;;4.40;99.90;;;;;;4091727;28;20039;-65
2023/01/28 03:02:29;;;;;;;7.15;6.32;;;4.20;99.90;;;;;;4096193;28;20550;-65
2023/01/28 03:04:45;;;;;;;8.40;6.18;;;4.10;99.90;;;;;;4098257;28;20570;-65
2023/01/28 03:06:52;;;;;;;7.13;5.50;;;3.90;99.90;;;;;;4096853;28;20032;-65
2023/01/28 03:09:21;;;;;;;6.78;5.55;;;3.70;99.90;;;;;;4095231;28;20110;-65
2023/01/28 03:38:17;;;;;;;4.90;4.35;;;3.20;99.90;;;;;;4098960;28;20027;-64
2023/01/28 03:40:18;;;;;;;5.40;4.63;;;3.30;99.90;;;;;;4097468;28;20074;-64
2023/01/28 03:42:19;;;;;;;8.02;5.45;;;3.40;99.90;;;;;;4098556;28;20616;-64
2023/01/28 03:46:39;;;;;;;8.10;5.90;;;3.40;99.90;;;;;;4093440;28;20043;-65
2023/01/28 03:48:40;;;;;;;7.45;5.95;;;3.40;99.90;;;;;;4095903;28;20045;-65
2023/01/28 03:50:41;;;;;;;7.28;5.78;;;3.50;99.90;;;;;;4081219;29;20038;-65
2023/01/28 03:52:41;;;;;;;6.90;5.75;;;3.60;99.90;;;;;;4098459;28;20470;-65
2023/01/28 03:54:43;;;;;;;7.57;6.07;;;3.60;99.90;;;;;;4098460;28;20038;-64
2023/01/28 03:56:43;;;;;;;7.93;6.40;;;3.60;99.90;;;;;;4094788;28;20031;-65
2023/01/28 03:58:55;;;;;;;8.70;6.18;;;3.60;99.90;;;;;;4099034;28;20041;-64
2023/01/28 04:00:55;;;;;;;7.20;5.70;;;3.70;99.90;;;;;;4082880;29;20511;-65
2023/01/28 04:02:56;;;;;;;7.88;5.97;;;3.70;99.90;;;;;;4093611;28;20122;-65
2023/01/28 04:04:57;;;;;;;7.68;6.10;;;3.80;99.90;;;;;;4095110;28;20027;-65
2023/01/28 04:06:59;;;;;;;6.80;6.00;;;3.80;99.90;;;;;;4096904;28;20086;-64
2023/01/28 04:08:59;;;;;;;6.07;5.07;;;3.90;99.90;;;;;;4097761;28;20380;-65
2023/01/28 04:11:15;;;;;;;7.68;6.00;;;3.90;99.90;;;;;;4093839;28;20110;-65
2023/01/28 04:13:17;;;;;;;10.93;7.13;;;3.90;99.90;;;;;;4094075;28;20042;-65
2023/01/28 04:15:17;;;;;;;9.48;7.25;;;3.70;99.90;;;;;;4092125;28;20039;-65
2023/01/28 04:17:18;;;;;;;10.32;7.95;;;3.80;99.90;;;;;;4093411;28;20447;-64
2023/01/28 04:19:18;;;;;;;12.88;9.05;;;3.90;99.90;;;;;;4094560;28;20078;-65
2023/01/28 04:21:19;;;;;;;13.05;10.13;;;3.90;99.90;;;;;;4096112;28;20055;-65
2023/01/28 04:23:20;;;;;;;13.25;10.50;;;3.90;99.90;;;;;;4094842;28;20027;-67
2023/01/28 04:25:21;;;;;;;14.20;10.57;;;3.90;99.90;;;;;;4093356;28;20125;-65
2023/01/28 04:27:21;;;;;;;12.57;9.73;;;4.00;99.90;;;;;;4094464;28;20045;-65
2023/01/28 04:29:22;;;;;;;16.40;11.57;;;3.90;99.90;;;;;;4097909;28;20123;-65
2023/01/28 04:31:22;;;;;;;14.48;11.40;;;3.50;99.90;;;;;;4094208;28;20462;-64
2023/01/28 04:33:23;;;;;;;13.93;10.18;;;3.50;99.90;;;;;;4094625;28;20503;-65
2023/01/28 04:35:23;;;;;;;12.25;9.88;;;3.50;99.90;;;;;;4091361;28;20122;-65
2023/01/28 04:37:24;;;;;;;14.10;10.35;;;3.60;99.90;;;;;;4097176;28;20491;-65
2023/01/28 04:39:25;;;;;;;14.20;10.07;;;3.60;99.90;;;;;;4094684;28;20094;-64
2023/01/28 04:41:25;;;;;;;11.40;9.07;;;3.60;99.90;;;;;;4094076;28;20113;-66
2023/01/28 04:43:26;;;;;;;11.45;9.45;;;3.70;99.90;;;;;;4093675;28;20035;-65
2023/01/28 04:45:26;;;;;;;12.65;9.77;;;3.80;99.90;;;;;;4092383;28;20066;-65
2023/01/28 04:47:27;;;;;;;15.25;11.23;;;3.70;99.90;;;;;;4094451;28;20031;-65
2023/01/28 04:49:27;;;;;;;12.95;10.30;;;3.60;99.90;;;;;;4093619;28;20486;-65
2023/01/28 04:51:28;;;;;;;13.40;9.77;;;3.60;99.90;;;;;;4093536;28;20081;-65
2023/01/28 04:53:29;;;;;;;13.88;10.23;;;3.70;99.90;;;;;;4097309;28;20035;-65
2023/01/28 04:55:30;;;;;;;14.20;10.70;;;3.70;99.90;;;;;;4093052;28;20035;-65
2023/01/28 04:57:31;;;;;;;12.30;10.07;;;3.80;99.90;;;;;;4094600;28;20036;-65
2023/01/28 04:59:31;;;;;;;14.48;9.82;;;3.80;99.90;;;;;;4095471;28;20044;-64
2023/01/28 05:01:32;;;;;;;14.07;10.57;;;3.80;99.90;;;;;;4093387;28;20046;-65
2023/01/28 05:03:32;;;;;;;15.43;11.57;;;3.90;99.90;;;;;;4095241;28;20038;-64
2023/01/28 05:05:33;;;;;;;14.38;10.93;;;3.70;99.90;;;;;;4095508;28;20487;-65
2023/01/28 05:07:34;;;;;;;14.05;11.00;;;3.80;99.90;;;;;;4094045;28;20170;-64
2023/01/28 05:09:35;;;;;;;16.23;12.18;;;3.70;99.90;;;;;;4097623;28;20071;-65
2023/01/28 05:11:36;;;;;;;16.08;12.27;;;3.80;99.90;;;;;;4079514;29;20036;-65
2023/01/28 05:13:37;;;;;;;15.20;11.57;;;3.80;99.90;;;;;;4095904;28;20110;-65
2023/01/28 05:15:37;;;;;;;14.70;10.68;;;3.80;99.90;;;;;;4090506;28;20067;-65
2023/01/28 05:17:38;;;;;;;16.45;12.45;;;3.90;99.90;;;;;;4090699;28;20043;-64
2023/01/28 05:19:38;;;;;;;18.17;13.25;;;3.80;99.90;;;;;;4095125;28;20105;-65
2023/01/28 05:21:39;;;;;;;16.60;12.20;;;3.70;99.90;;;;;;4094967;28;20036;-64
2023/01/28 05:23:39;;;;;;;16.63;12.43;;;3.70;99.90;;;;;;4096408;28;20118;-64
2023/01/28 05:25:40;;;;;;;22.45;14.75;;;3.60;99.90;;;;;;4091481;28;20035;-64
2023/01/28 05:27:40;;;;;;;21.17;14.68;;;3.50;99.90;;;;;;4091799;28;20058;-64
2023/01/28 05:29:41;;;;;;;18.35;13.10;;;3.30;99.90;;;;;;4077902;29;20084;-64
2023/01/28 05:31:42;;;;;;;17.58;13.02;;;3.20;99.90;;;;;;4097728;28;20032;-64
2023/01/28 05:33:42;;;;;;;17.30;12.65;;;3.10;99.90;;;;;;4096098;28;20086;-64
2023/01/28 05:35:43;;;;;;;17.25;12.65;;;3.10;99.90;;;;;;4092229;28;20047;-64
2023/01/28 05:37:43;;;;;;;19.08;13.63;;;3.10;99.90;;;;;;4096466;28;20038;-65
2023/01/28 05:39:44;;;;;;;16.98;12.38;;;3.00;99.90;;;;;;4094549;28;20062;-64
2023/01/28 05:41:45;;;;;;;17.90;13.23;;;3.10;99.90;;;;;;4093867;28;20054;-64
2023/01/28 05:43:45;;;;;;;20.67;15.27;;;3.00;99.90;;;;;;4092890;28;20035;-64
2023/01/28 05:45:46;;;;;;;19.45;14.38;;;2.90;99.90;;;;;;4092624;28;20087;-64
2023/01/28 05:47:47;;;;;;;19.95;13.48;;;3.00;99.90;;;;;;4095733;28;20114;-64
2023/01/28 05:49:47;;;;;;;15.70;12.23;;;3.10;99.90;;;;;;4081275;29;20032;-64
2023/01/28 05:51:48;;;;;;;17.70;12.82;;;3.20;99.90;;;;;;4097575;28;20482;-64
2023/01/28 05:53:49;;;;;;;18.92;13.43;;;3.10;99.90;;;;;;4097371;28;20051;-64
2023/01/28 05:55:52;;;;;;;16.80;12.18;;;3.20;99.90;;;;;;4095663;28;20094;-64
2023/01/28 05:57:52;;;;;;;14.80;11.80;;;3.30;99.90;;;;;;4096276;28;20039;-65
2023/01/28 05:59:53;;;;;;;19.60;13.15;;;3.30;99.90;;;;;;4097564;28;20043;-64
2023/01/28 06:01:53;;;;;;;14.93;11.20;;;3.40;99.90;;;;;;4093397;28;20042;-65
2023/01/28 06:03:55;;;;;;;16.42;12.05;;;3.40;99.90;;;;;;4098275;28;20070;-65
2023/01/28 06:05:55;;;;;;;18.13;13.18;;;3.40;99.90;;;;;;4096006;28;20027;-64
2023/01/28 06:07:56;;;;;;;21.95;14.98;;;3.50;99.90;;;;;;4095980;28;20041;-67
2023/01/28 06:09:56;;;;;;;17.92;12.60;;;3.50;99.90;;;;;;4083764;28;20044;-65
2023/01/28 06:11:57;;;;;;;18.30;13.38;;;3.60;99.90;;;;;;4089619;28;20639;-65
2023/01/28 06:13:57;;;;;;;18.52;13.20;;;3.60;99.90;;;;;;4098774;28;20486;-65
2023/01/28 06:15:58;;;;;;;20.45;14.90;;;3.60;99.90;;;;;;4093219;28;20566;-65
2023/01/28 06:17:59;;;;;;;21.45;15.30;;;3.50;99.90;;;;;;4096779;28;20045;-64
2023/01/28 06:19:59;;;;;;;19.70;13.80;;;3.60;99.90;;;;;;4097438;28;20487;-64
2023/01/28 06:22:00;;;;;;;19.38;13.50;;;3.60;99.90;;;;;;4095818;28;20375;-64
2023/01/28 06:24:00;;;;;;;21.02;13.93;;;3.60;99.90;;;;;;4094938;28;20031;-64
2023/01/28 06:26:01;;;;;;;21.67;15.52;;;3.70;99.90;;;;;;4092097;28;20045;-65
2023/01/28 06:28:02;;;;;;;21.00;15.27;;;3.70;99.90;;;;;;4094956;28;20031;-64
2023/01/28 06:30:02;;;;;;;21.13;14.38;;;3.70;99.90;;;;;;4095909;28;20091;-66
2023/01/28 06:32:04;;;;;;;21.73;15.45;;;3.80;99.90;;;;;;4093648;28;20039;-64
2023/01/28 06:34:04;;;;;;;21.50;14.93;;;3.80;99.90;;;;;;4092032;28;20090;-64
2023/01/28 06:36:06;;;;;;;21.45;15.35;;;3.80;99.90;;;;;;4093185;28;20035;-65
2023/01/28 06:38:06;;;;;;;23.38;15.07;;;3.90;99.90;;;;;;4096121;28;20039;-64
2023/01/28 06:40:08;;;;;;;22.45;15.27;;;3.90;99.90;;;;;;4095758;28;20407;-64
2023/01/28 06:42:08;;;;;;;22.63;15.65;;;3.90;99.90;;;;;;4096696;28;20036;-64
2023/01/28 06:44:09;;;;;;;22.65;16.25;;;3.80;99.90;;;;;;4095296;28;20398;-65
2023/01/28 06:46:09;;;;;;;22.70;15.55;;;3.70;99.90;;;;;;4092492;28;20028;-64
2023/01/28 06:48:10;;;;;;;20.27;14.05;;;3.70;99.90;;;;;;4090952;28;20043;-64
2023/01/28 06:50:10;;;;;;;22.65;15.75;;;3.70;99.90;;;;;;4095286;28;20027;-66
2023/01/28 06:52:11;;;;;;;22.40;15.65;;;3.70;99.90;;;;;;4096471;28;20027;-64
2023/01/28 06:54:12;;;;;;;21.70;15.98;;;3.80;99.90;;;;;;4095396;28;20043;-64
2023/01/28 06:56:12;;;;;;;20.92;14.80;;;3.80;99.90;;;;;;4092012;28;20063;-64
2023/01/28 06:58:13;;;;;;;21.23;14.55;;;3.80;99.90;;;;;;4093749;28;21044;-64
2023/01/28 07:00:15;;;;;;;20.73;14.38;;;3.90;99.90;;;;;;4091573;28;20039;-64
2023/01/28 07:02:15;;;;;;;21.40;14.57;;;3.90;99.90;;;;;;4092201;28;20669;-64
2023/01/28 07:04:16;;;;;;;21.17;15.00;;;3.90;99.90;;;;;;4093956;28;20042;-64
2023/01/28 07:06:16;;;;;;;21.48;15.18;;;4.00;99.90;;;;;;4093436;28;20047;-64
2023/01/28 07:08:17;;;;;;;19.45;14.45;;;4.00;99.90;;;;;;4095742;28;20043;-64
2023/01/28 07:10:18;;;;;;;21.27;15.85;;;4.00;99.90;;;;;;4096101;28;20491;-65
2023/01/28 07:12:18;;;;;;;22.95;16.40;;;4.00;99.90;;;;;;4093792;28;20047;-64
2023/01/28 07:14:19;;;;;;;22.85;15.50;;;4.00;99.90;;;;;;4094326;28;20054;-65
2023/01/28 07:16:19;;;;;;;21.38;15.88;;;4.00;99.90;;;;;;4089842;28;20036;-65
2023/01/28 07:18:20;;;;;;;22.17;15.60;;;4.10;99.90;;;;;;4095422;28;20558;-64
2023/01/28 07:20:21;;;;;;;21.40;15.50;;;4.10;99.90;;;;;;4094173;28;20039;-65
2023/01/28 07:22:21;;;;;;;24.52;16.98;;;4.10;99.90;;;;;;4097653;28;20055;-64
2023/01/28 07:24:22;;;;;;;23.85;16.25;;;4.10;99.90;;;;;;4089640;28;20042;-64
2023/01/28 07:26:23;;;;;;;24.63;16.80;;;4.00;99.90;;;;;;4094625;28;20031;-65
2023/01/28 07:28:23;;;;;;;23.35;16.20;;;4.00;99.90;;;;;;4095105;28;20359;-65
2023/01/28 07:30:24;;;;;;;23.27;16.45;;;4.00;99.90;;;;;;4095606;28;20039;-65
2023/01/28 07:32:26;;;;;;;21.92;15.40;;;4.00;99.90;;;;;;4098287;28;20058;-65
2023/01/28 07:34:26;;;;;;;21.42;14.95;;;4.00;99.90;;;;;;4089905;28;20039;-65
2023/01/28 07:36:27;;;;;;;21.55;15.60;;;4.00;99.90;;;;;;4092636;28;20117;-64
2023/01/28 07:38:28;;;;;;;23.85;15.80;;;4.00;99.90;;;;;;4094654;28;20455;-65
2023/01/28 07:40:28;;;;;;;21.13;14.77;;;4.00;99.90;;;;;;4095092;28;20047;-67
2023/01/28 07:42:29;;;;;;;21.55;15.23;;;4.00;99.90;;;;;;4102358;28;20043;-65
2023/01/28 07:44:30;;;;;;;22.17;15.20;;;4.00;99.90;;;;;;4093432;28;20034;-65
2023/01/28 07:46:30;;;;;;;23.48;16.10;;;4.00;99.90;;;;;;4091067;28;20039;-65
2023/01/28 07:48:31;;;;;;;22.48;16.10;;;4.10;99.90;;;;;;4086081;28;20097;-65
2023/01/28 07:50:34;;;;;;;22.60;16.10;;;4.10;99.90;;;;;;4094932;28;20402;-65
2023/01/28 07:52:43;;;;;;;24.65;16.90;;;4.10;99.90;;;;;;4093451;28;20118;-65
2023/01/28 07:54:43;;;;;;;21.95;15.65;;;4.10;99.90;;;;;;4089155;28;20491;-65
2023/01/28 07:56:44;;;;;;;24.92;17.60;;;4.10;99.90;;;;;;4091568;28;20029;-65
2023/01/28 07:58:48;;;;;;;22.95;16.20;;;4.10;99.90;;;;;;4088560;28;20027;-65
2023/01/28 08:00:48;;;;;;;24.38;16.50;;;4.10;99.90;;;;;;4093817;28;20156;-66
2023/01/28 08:02:49;;;;;;;27.50;17.88;;;4.10;99.90;;;;;;4095836;28;20483;-65
2023/01/28 08:04:50;;;;;;;24.83;17.60;;;4.10;99.90;;;;;;4093345;28;20055;-65
2023/01/28 08:06:51;;;;;;;24.30;16.92;;;4.10;99.90;;;;;;4093122;28;20470;-65
2023/01/28 08:08:52;;;;;;;24.23;16.80;;;4.10;99.90;;;;;;4080555;28;20052;-65
2023/01/28 08:10:53;;;;;;;25.55;17.13;;;4.10;99.90;;;;;;4100629;28;20039;-65
2023/01/28 08:12:55;;;;;;;25.92;18.20;;;4.10;99.90;;;;;;4097745;28;20078;-67
2023/01/28 08:14:55;;;;;;;23.95;15.68;;;4.20;99.90;;;;;;4098020;28;20027;-65
2023/01/28 08:16:56;;;;;;;26.23;17.95;;;4.20;99.90;;;;;;4093592;28;20051;-65
2023/01/28 08:18:57;;;;;;;25.77;16.63;;;4.20;99.90;;;;;;4096599;28;20074;-65
2023/01/28 08:20:59;;;;;;;25.15;16.73;;;4.20;99.90;;;;;;4094730;28;20035;-66
2023/01/28 08:23:13;;;;;;;26.73;19.08;;;4.10;99.90;;;;;;4098118;28;20041;-65
2023/01/28 08:25:14;;;;;;;26.35;17.95;;;4.10;99.90;;;;;;4089471;28;20039;-65
2023/01/28 08:27:14;;;;;;;24.40;17.60;;;4.10;99.90;;;;;;4094632;28;20348;-65
2023/01/28 08:29:15;;;;;;;29.15;18.92;;;4.10;99.90;;;;;;4096961;28;20134;-65
2023/01/28 08:31:15;;;;;;;26.77;18.10;;;4.00;99.90;;;;;;4092405;28;20491;-65
2023/01/28 08:33:17;;;;;;;26.55;18.67;;;4.00;99.90;;;;;;4094966;28;20078;-65
2023/01/28 08:35:18;;;;;;;27.27;18.23;;;4.10;99.90;;;;;;4092163;28;20512;-65
2023/01/28 08:37:18;;;;;;;26.23;17.98;;;4.10;99.90;;;;;;4094877;28;20046;-65
2023/01/28 08:39:19;;;;;;;27.60;18.95;;;4.10;99.90;;;;;;4095485;28;20039;-65
2023/01/28 08:41:21;;;;;;;31.48;20.73;;;4.10;99.90;;;;;;4093641;28;20039;-65
2023/01/28 08:43:22;;;;;;;27.77;18.80;;;4.00;99.90;;;;;;4095223;28;20046;-65
2023/01/28 08:45:26;;;;;;;30.13;19.13;;;4.00;99.90;;;;;;4091985;28;20040;-65
2023/01/28 08:47:26;;;;;;;26.90;19.00;;;4.00;99.90;;;;;;4093084;28;20036;-65
2023/01/28 08:49:27;;;;;;;28.50;18.98;;;4.00;99.90;;;;;;4093311;28;20053;-65
2023/01/28 08:51:27;;;;;;;26.80;19.23;;;4.00;99.90;;;;;;4094069;28;20031;-65
2023/01/28 08:53:28;;;;;;;31.88;21.23;;;4.00;99.90;;;;;;4093435;28;20042;-65
2023/01/28 08:55:29;;;;;;;29.85;19.70;;;4.00;99.90;;;;;;4093303;28;20042;-66
2023/01/28 08:57:30;;;;;;;32.30;21.98;;;4.00;99.90;;;;;;4093862;28;20039;-65
2023/01/28 08:59:31;;;;;;;30.27;20.90;;;4.00;99.90;;;;;;4097807;28;20045;-65
2023/01/28 09:01:31;;;;;;;30.45;20.45;;;3.90;99.90;;;;;;4097104;28;20058;-65
2023/01/28 09:03:32;;;;;;;31.30;20.90;;;3.90;99.90;;;;;;4094005;28;20035;-66
2023/01/28 09:05:34;;;;;;;28.00;19.38;;;3.90;99.90;;;;;;4090276;28;20050;-65
2023/01/28 09:07:35;;;;;;;31.90;20.90;;;3.90;99.90;;;;;;4097579;28;20118;-65
2023/01/28 09:09:36;;;;;;;32.75;21.40;;;4.00;99.90;;;;;;4077164;29;20059;-65
2023/01/28 09:11:36;;;;;;;31.92;21.52;;;4.00;99.90;;;;;;4093355;28;20039;-65
2023/01/28 09:13:37;;;;;;;30.20;20.35;;;3.90;99.90;;;;;;4094090;28;20398;-65
2023/01/28 09:15:37;;;;;;;31.48;20.75;;;3.90;99.90;;;;;;4092021;28;20031;-65
2023/01/28 09:17:39;;;;;;;29.13;20.15;;;3.90;99.90;;;;;;4095034;28;20048;-65
2023/01/28 09:19:39;;;;;;;29.60;18.35;;;4.00;99.90;;;;;;4092164;28;20507;-65
2023/01/28 09:21:40;;;;;;;28.70;19.33;;;4.00;99.90;;;;;;4092376;28;20046;-65
2023/01/28 09:23:40;;;;;;;28.10;19.35;;;4.00;99.90;;;;;;4097186;28;20036;-65
2023/01/28 09:25:41;;;;;;;26.20;17.55;;;4.00;99.90;;;;;;4097036;28;20071;-65
2023/01/28 09:27:41;;;;;;;30.00;20.02;;;4.00;99.90;;;;;;4098481;28;20046;-65
2023/01/28 09:29:42;;;;;;;31.70;20.85;;;4.00;99.90;;;;;;4095932;28;20039;-65
2023/01/28 09:31:43;;;;;;;27.27;18.20;;;4.10;99.90;;;;;;4095234;28;20035;-65
2023/01/28 09:33:44;;;;;;;23.13;16.58;;;3.80;99.90;;;;;;4098478;28;20109;-65
2023/01/28 09:35:44;;;;;;;21.50;16.27;;;3.60;99.90;;;;;;4093783;28;20043;-65
2023/01/28 09:37:45;;;;;;;21.42;14.90;;;3.60;99.90;;;;;;4097817;28;20139;-65
2023/01/28 09:39:46;;;;;;;21.05;15.15;;;3.70;99.90;;;;;;4097638;28;20431;-65
2023/01/28 09:42:25;;;;;;;21.75;14.82;;;3.70;99.90;;;;;;4077163;29;20448;-65
2023/01/28 09:44:53;;;;;;;20.42;14.57;;;3.80;99.90;;;;;;4093302;28;20083;-65
2023/01/28 09:47:01;;;;;;;21.88;15.57;;;3.80;99.90;;;;;;4090328;28;20043;-65
2023/01/28 09:49:28;;;;;;;20.25;15.05;;;3.90;99.90;;;;;;4092758;28;20027;-65
2023/01/28 09:51:52;;;;;;;21.33;14.60;;;3.90;99.90;;;;;;4091120;28;20086;-65
2023/01/28 09:53:56;;;;;;;22.98;17.10;;;3.90;99.90;;;;;;4096695;28;20054;-66
2023/01/28 09:56:13;;;;;;;25.27;17.05;;;3.90;99.90;;;;;;4096278;28;20568;-65
2023/01/28 09:58:16;;;;;;;22.00;16.63;;;3.90;99.90;;;;;;4088286;28;20027;-65
2023/01/28 10:00:42;;;;;;;21.88;15.75;;;3.90;99.90;;;;;;4094254;28;20050;-65
2023/01/28 10:03:07;;;;;;;19.58;14.07;;;3.90;99.90;;;;;;4071609;28;20035;-65
2023/01/28 10:05:15;;;;;;;23.08;16.02;;;4.00;99.90;;;;;;4087531;28;20028;-65
2023/01/28 10:07:38;;;;;;;25.25;16.45;;;4.00;99.90;;;;;;4092180;28;20034;-65
2023/01/28 10:10:09;;;;;;;23.67;16.35;;;4.00;99.90;;;;;;4094125;28;20066;-65
2023/01/28 10:12:42;;;;;;;25.60;17.45;;;4.00;99.90;;;;;;4090403;28;20031;-65
2023/01/28 10:15:07;;;;;;;25.33;17.40;;;4.00;99.90;;;;;;4082825;28;20039;-65
2023/01/28 10:17:25;;;;;;;25.25;17.45;;;4.00;99.90;;;;;;4098503;28;20518;-65
2023/01/28 10:19:34;;;;;;;23.45;16.60;;;4.10;99.90;;;;;;4097463;28;20039;-64
2023/01/28 10:21:45;;;;;;;24.63;16.90;;;4.10;99.90;;;;;;4096068;28;20063;-65
2023/01/28 10:24:30;;;;;;;27.75;19.45;;;4.10;99.90;;;;;;4092163;28;20054;-65
2023/01/28 10:26:35;;;;;;;30.77;20.10;;;4.10;99.90;;;;;;4091800;28;20102;-66
2023/01/28 10:28:36;;;;;;;27.88;19.00;;;4.10;99.90;;;;;;4095800;28;20506;-65
2023/01/28 10:30:39;;;;;;;26.63;18.50;;;4.10;99.90;;;;;;4095444;28;20086;-65
2023/01/28 10:32:47;;;;;;;25.77;19.17;;;4.10;99.90;;;;;;4096922;28;20043;-65
2023/01/28 10:34:50;;;;;;;26.25;18.58;;;4.10;99.90;;;;;;4093529;28;20063;-65
2023/01/28 10:36:51;;;;;;;35.50;22.98;;;4.20;99.90;;;;;;4084694;28;20040;-65
2023/01/28 10:38:52;;;;;;;33.63;23.10;;;4.20;99.90;;;;;;4088745;28;20046;-65
2023/01/28 10:40:57;;;;;;;37.72;23.27;;;4.10;99.90;;;;;;4094295;28;20118;-66
2023/01/28 10:42:58;;;;;;;36.08;23.33;;;4.10;99.90;;;;;;4096028;28;20035;-65
2023/01/28 10:45:05;;;;;;;34.90;22.75;;;4.20;99.90;;;;;;4095302;28;20039;-65
2023/01/28 10:47:19;;;;;;;31.15;21.17;;;4.20;99.90;;;;;;4093526;28;20046;-65
2023/01/28 10:49:26;;;;;;;31.60;21.20;;;4.20;99.90;;;;;;4093137;28;20127;-65
2023/01/28 10:51:35;;;;;;;30.55;20.55;;;4.10;99.90;;;;;;4093246;28;20394;-65
2023/01/28 10:53:40;;;;;;;27.88;18.80;;;4.00;99.90;;;;;;4094352;28;20432;-65
2023/01/28 10:55:59;;;;;;;32.83;20.92;;;4.00;99.90;;;;;;4094781;28;20043;-65
2023/01/28 10:58:03;;;;;;;30.73;20.67;;;4.00;99.90;;;;;;4093756;28;20051;-65
2023/01/28 11:00:21;;;;;;;31.27;20.58;;;4.10;99.90;;;;;;4096815;28;20042;-66
2023/01/28 11:02:32;;;;;;;30.60;20.13;;;4.10;99.90;;;;;;4096700;28;20074;-65
2023/01/28 11:04:34;;;;;;;30.15;21.02;;;4.10;99.90;;;;;;4091188;28;20479;-65
2023/01/28 11:06:35;;;;;;;;;;;4.10;99.90;;;;;;4096545;28;20114;-65
2023/01/28 11:08:43;;;;;;;28.67;19.48;;;4.10;99.90;;;;;;4099168;28;19926;-65
2023/01/28 11:10:45;;;;;;;28.52;19.10;;;4.10;99.90;;;;;;4094761;28;20031;-64
2023/01/28 11:12:55;;;;;;;32.10;21.08;;;4.20;99.90;;;;;;4095563;28;20039;-65
2023/01/28 11:14:57;;;;;;;26.92;19.33;;;4.00;99.90;;;;;;4094953;28;20040;-65
2023/01/28 11:16:57;;;;;;;29.88;20.08;;;4.10;99.90;;;;;;4092068;28;20557;-65
2023/01/28 11:19:05;;;;;;;28.75;19.95;;;4.10;99.90;;;;;;4094734;28;20953;-65